sensor_id;sensor_type;location;lat;lon;timestamp;P1;durP1;ratioP1;P2;durP2;ratioP2
17763;SDS011;22245;52.832;13.816;2024-01-07T00:01:55;6.23;;;3.20;;
17763;SDS011;22245;52.832;13.816;2024-01-07T00:05:17;5.80;;;2.73;;
17763;SDS011;22245;52.832;13.816;2024-01-07T00:08:38;6.70;;;3.20;;
17763;SDS011;22245;52.832;13.816;2024-01-07T00:12:00;7.30;;;3.60;;
17763;SDS011;22245;52.832;13.816;2024-01-07T00:15:21;7.83;;;3.03;;
17763;SDS011;22245;52.832;13.816;2024-01-07T00:18:46;6.47;;;2.80;;
17763;SDS011;22245;52.832;13.816;2024-01-07T00:22:08;6.03;;;3.10;;
17763;SDS011;22245;52.832;13.816;2024-01-07T00:25:29;10.43;;;3.10;;
17763;SDS011;22245;52.832;13.816;2024-01-07T00:28:50;6.33;;;3.20;;
17763;SDS011;22245;52.832;13.816;2024-01-07T00:32:12;9.47;;;3.13;;
17763;SDS011;22245;52.832;13.816;2024-01-07T00:35:35;11.20;;;4.20;;
17763;SDS011;22245;52.832;13.816;2024-01-07T00:38:57;7.07;;;3.20;;
17763;SDS011;22245;52.832;13.816;2024-01-07T00:42:18;7.23;;;3.80;;
17763;SDS011;22245;52.832;13.816;2024-01-07T00:45:39;7.03;;;3.60;;
17763;SDS011;22245;52.832;13.816;2024-01-07T00:49:01;9.77;;;3.33;;
17763;SDS011;22245;52.832;13.816;2024-01-07T00:52:24;5.90;;;3.20;;
17763;SDS011;22245;52.832;13.816;2024-01-07T00:55:46;9.40;;;3.37;;
17763;SDS011;22245;52.832;13.816;2024-01-07T00:59:07;6.93;;;3.07;;
17763;SDS011;22245;52.832;13.816;2024-01-07T01:02:29;7.40;;;3.83;;
17763;SDS011;22245;52.832;13.816;2024-01-07T01:05:50;7.00;;;3.10;;
17763;SDS011;22245;52.832;13.816;2024-01-07T01:09:13;7.37;;;3.03;;
17763;SDS011;22245;52.832;13.816;2024-01-07T01:12:35;6.70;;;3.03;;
17763;SDS011;22245;52.832;13.816;2024-01-07T01:15:56;5.00;;;2.63;;
17763;SDS011;22245;52.832;13.816;2024-01-07T01:19:18;8.37;;;3.60;;
17763;SDS011;22245;52.832;13.816;2024-01-07T01:22:40;6.07;;;3.40;;
17763;SDS011;22245;52.832;13.816;2024-01-07T01:26:03;6.77;;;3.40;;
17763;SDS011;22245;52.832;13.816;2024-01-07T01:29:24;7.53;;;3.37;;
17763;SDS011;22245;52.832;13.816;2024-01-07T01:32:46;5.60;;;3.17;;
17763;SDS011;22245;52.832;13.816;2024-01-07T01:36:08;8.20;;;3.20;;
17763;SDS011;22245;52.832;13.816;2024-01-07T01:39:30;5.43;;;3.10;;
17763;SDS011;22245;52.832;13.816;2024-01-07T01:42:53;7.00;;;3.60;;
17763;SDS011;22245;52.832;13.816;2024-01-07T01:46:15;6.80;;;3.37;;
17763;SDS011;22245;52.832;13.816;2024-01-07T01:49:36;5.83;;;2.73;;
17763;SDS011;22245;52.832;13.816;2024-01-07T01:52:58;6.00;;;2.87;;
17763;SDS011;22245;52.832;13.816;2024-01-07T01:56:20;8.30;;;3.33;;
17763;SDS011;22245;52.832;13.816;2024-01-07T01:59:43;5.77;;;2.73;;
17763;SDS011;22245;52.832;13.816;2024-01-07T02:03:04;6.70;;;2.90;;
17763;SDS011;22245;52.832;13.816;2024-01-07T02:06:26;7.70;;;3.07;;
17763;SDS011;22245;52.832;13.816;2024-01-07T02:09:48;6.10;;;3.10;;
17763;SDS011;22245;52.832;13.816;2024-01-07T02:13:10;6.53;;;2.90;;
17763;SDS011;22245;52.832;13.816;2024-01-07T02:16:33;6.80;;;3.50;;
17763;SDS011;22245;52.832;13.816;2024-01-07T02:19:55;6.93;;;3.50;;
17763;SDS011;22245;52.832;13.816;2024-01-07T02:23:16;6.53;;;3.37;;
17763;SDS011;22245;52.832;13.816;2024-01-07T02:26:39;8.07;;;3.60;;
17763;SDS011;22245;52.832;13.816;2024-01-07T02:30:00;6.13;;;2.90;;
17763;SDS011;22245;52.832;13.816;2024-01-07T02:33:21;6.73;;;3.30;;
17763;SDS011;22245;52.832;13.816;2024-01-07T02:36:43;6.53;;;3.33;;
17763;SDS011;22245;52.832;13.816;2024-01-07T02:40:06;9.13;;;3.57;;
17763;SDS011;22245;52.832;13.816;2024-01-07T02:43:29;9.13;;;4.10;;
17763;SDS011;22245;52.832;13.816;2024-01-07T02:46:51;7.80;;;3.47;;
17763;SDS011;22245;52.832;13.816;2024-01-07T02:50:12;6.97;;;3.53;;
17763;SDS011;22245;52.832;13.816;2024-01-07T02:53:34;7.40;;;3.60;;
17763;SDS011;22245;52.832;13.816;2024-01-07T02:56:56;5.47;;;3.13;;
17763;SDS011;22245;52.832;13.816;2024-01-07T03:00:19;8.20;;;3.90;;
17763;SDS011;22245;52.832;13.816;2024-01-07T03:03:41;7.77;;;3.83;;
17763;SDS011;22245;52.832;13.816;2024-01-07T03:07:02;11.40;;;4.30;;
17763;SDS011;22245;52.832;13.816;2024-01-07T03:10:24;6.93;;;4.00;;
17763;SDS011;22245;52.832;13.816;2024-01-07T03:13:45;6.63;;;3.83;;
17763;SDS011;22245;52.832;13.816;2024-01-07T03:17:08;6.40;;;3.47;;
17763;SDS011;22245;52.832;13.816;2024-01-07T03:20:30;8.87;;;4.10;;
17763;SDS011;22245;52.832;13.816;2024-01-07T03:23:51;9.10;;;3.80;;
17763;SDS011;22245;52.832;13.816;2024-01-07T03:27:12;8.87;;;4.10;;
17763;SDS011;22245;52.832;13.816;2024-01-07T03:30:34;9.60;;;3.77;;
17763;SDS011;22245;52.832;13.816;2024-01-07T03:33:57;7.73;;;3.80;;
17763;SDS011;22245;52.832;13.816;2024-01-07T03:37:19;6.93;;;3.67;;
17763;SDS011;22245;52.832;13.816;2024-01-07T03:40:40;10.73;;;4.43;;
17763;SDS011;22245;52.832;13.816;2024-01-07T03:44:02;8.20;;;4.00;;
17763;SDS011;22245;52.832;13.816;2024-01-07T03:47:23;11.27;;;4.50;;
17763;SDS011;22245;52.832;13.816;2024-01-07T03:50:46;9.93;;;4.27;;
17763;SDS011;22245;52.832;13.816;2024-01-07T03:54:08;9.60;;;4.80;;
17763;SDS011;22245;52.832;13.816;2024-01-07T03:57:29;12.03;;;5.00;;
17763;SDS011;22245;52.832;13.816;2024-01-07T04:00:51;9.37;;;4.37;;
17763;SDS011;22245;52.832;13.816;2024-01-07T04:04:13;10.13;;;4.33;;
17763;SDS011;22245;52.832;13.816;2024-01-07T04:07:36;10.00;;;4.73;;
17763;SDS011;22245;52.832;13.816;2024-01-07T04:10:57;9.40;;;4.70;;
17763;SDS011;22245;52.832;13.816;2024-01-07T04:14:18;9.97;;;4.73;;
17763;SDS011;22245;52.832;13.816;2024-01-07T04:17:39;8.27;;;4.27;;
17763;SDS011;22245;52.832;13.816;2024-01-07T04:21:01;8.90;;;4.43;;
17763;SDS011;22245;52.832;13.816;2024-01-07T04:24:24;10.57;;;4.57;;
17763;SDS011;22245;52.832;13.816;2024-01-07T04:27:46;8.90;;;4.53;;
17763;SDS011;22245;52.832;13.816;2024-01-07T04:31:07;9.20;;;4.40;;
17763;SDS011;22245;52.832;13.816;2024-01-07T04:34:29;14.67;;;4.50;;
17763;SDS011;22245;52.832;13.816;2024-01-07T04:37:51;11.53;;;4.80;;
17763;SDS011;22245;52.832;13.816;2024-01-07T04:41:14;12.17;;;4.63;;
17763;SDS011;22245;52.832;13.816;2024-01-07T04:44:36;11.63;;;4.60;;
17763;SDS011;22245;52.832;13.816;2024-01-07T04:47:57;9.23;;;4.60;;
17763;SDS011;22245;52.832;13.816;2024-01-07T04:51:19;8.60;;;4.47;;
17763;SDS011;22245;52.832;13.816;2024-01-07T04:54:40;11.57;;;5.00;;
17763;SDS011;22245;52.832;13.816;2024-01-07T04:58:03;10.43;;;4.50;;
17763;SDS011;22245;52.832;13.816;2024-01-07T05:01:25;11.23;;;4.87;;
17763;SDS011;22245;52.832;13.816;2024-01-07T05:04:47;8.47;;;4.17;;
17763;SDS011;22245;52.832;13.816;2024-01-07T05:08:08;12.73;;;4.80;;
17763;SDS011;22245;52.832;13.816;2024-01-07T05:11:30;9.90;;;4.53;;
17763;SDS011;22245;52.832;13.816;2024-01-07T05:14:53;8.13;;;4.37;;
17763;SDS011;22245;52.832;13.816;2024-01-07T05:18:14;10.73;;;4.87;;
17763;SDS011;22245;52.832;13.816;2024-01-07T05:21:38;10.40;;;4.87;;
17763;SDS011;22245;52.832;13.816;2024-01-07T05:25:00;12.17;;;4.87;;
17763;SDS011;22245;52.832;13.816;2024-01-07T05:28:22;7.67;;;4.40;;
17763;SDS011;22245;52.832;13.816;2024-01-07T05:31:45;9.33;;;4.30;;
17763;SDS011;22245;52.832;13.816;2024-01-07T05:35:07;8.33;;;4.03;;
17763;SDS011;22245;52.832;13.816;2024-01-07T05:38:29;11.10;;;4.60;;
17763;SDS011;22245;52.832;13.816;2024-01-07T05:41:52;9.63;;;4.50;;
17763;SDS011;22245;52.832;13.816;2024-01-07T05:45:14;8.40;;;4.47;;
17763;SDS011;22245;52.832;13.816;2024-01-07T05:48:42;10.10;;;4.10;;
17763;SDS011;22245;52.832;13.816;2024-01-07T05:52:04;11.50;;;4.47;;
17763;SDS011;22245;52.832;13.816;2024-01-07T05:55:26;8.70;;;4.37;;
17763;SDS011;22245;52.832;13.816;2024-01-07T05:58:47;9.10;;;4.60;;
17763;SDS011;22245;52.832;13.816;2024-01-07T06:02:08;9.97;;;4.37;;
17763;SDS011;22245;52.832;13.816;2024-01-07T06:05:32;10.80;;;5.60;;
17763;SDS011;22245;52.832;13.816;2024-01-07T06:08:53;11.63;;;5.17;;
17763;SDS011;22245;52.832;13.816;2024-01-07T06:12:14;9.67;;;4.80;;
17763;SDS011;22245;52.832;13.816;2024-01-07T06:26:49;7.70;;;4.37;;
17763;SDS011;22245;52.832;13.816;2024-01-07T06:30:11;11.30;;;4.17;;
17763;SDS011;22245;52.832;13.816;2024-01-07T06:33:33;7.37;;;3.87;;
17763;SDS011;22245;52.832;13.816;2024-01-07T06:36:55;6.50;;;3.80;;
17763;SDS011;22245;52.832;13.816;2024-01-07T06:40:17;9.07;;;3.40;;
17763;SDS011;22245;52.832;13.816;2024-01-07T06:43:40;7.83;;;3.63;;
17763;SDS011;22245;52.832;13.816;2024-01-07T06:47:01;6.00;;;3.33;;
17763;SDS011;22245;52.832;13.816;2024-01-07T06:50:23;6.43;;;3.50;;
17763;SDS011;22245;52.832;13.816;2024-01-07T06:53:45;6.23;;;3.43;;
17763;SDS011;22245;52.832;13.816;2024-01-07T06:57:06;9.00;;;3.83;;
17763;SDS011;22245;52.832;13.816;2024-01-07T07:00:30;8.57;;;3.87;;
17763;SDS011;22245;52.832;13.816;2024-01-07T07:03:51;8.07;;;3.90;;
17763;SDS011;22245;52.832;13.816;2024-01-07T07:07:13;8.27;;;3.60;;
17763;SDS011;22245;52.832;13.816;2024-01-07T07:10:35;7.43;;;3.30;;
17763;SDS011;22245;52.832;13.816;2024-01-07T07:13:57;7.80;;;3.53;;
17763;SDS011;22245;52.832;13.816;2024-01-07T07:17:20;7.73;;;3.70;;
17763;SDS011;22245;52.832;13.816;2024-01-07T07:20:42;8.17;;;3.60;;
17763;SDS011;22245;52.832;13.816;2024-01-07T07:24:03;8.70;;;3.77;;
17763;SDS011;22245;52.832;13.816;2024-01-07T07:27:25;9.43;;;3.47;;
17763;SDS011;22245;52.832;13.816;2024-01-07T07:30:46;7.07;;;3.23;;
17763;SDS011;22245;52.832;13.816;2024-01-07T07:34:13;8.00;;;3.30;;
17763;SDS011;22245;52.832;13.816;2024-01-07T07:37:35;5.57;;;3.20;;
17763;SDS011;22245;52.832;13.816;2024-01-07T07:40:56;6.53;;;3.13;;
17763;SDS011;22245;52.832;13.816;2024-01-07T07:44:17;8.10;;;3.30;;
17763;SDS011;22245;52.832;13.816;2024-01-07T07:47:38;8.30;;;4.10;;
17763;SDS011;22245;52.832;13.816;2024-01-07T07:51:03;8.87;;;3.53;;
17763;SDS011;22245;52.832;13.816;2024-01-07T07:54:25;7.50;;;3.93;;
17763;SDS011;22245;52.832;13.816;2024-01-07T07:57:46;7.70;;;3.87;;
17763;SDS011;22245;52.832;13.816;2024-01-07T08:01:08;13.27;;;4.20;;
17763;SDS011;22245;52.832;13.816;2024-01-07T08:04:30;8.97;;;4.07;;
17763;SDS011;22245;52.832;13.816;2024-01-07T08:07:53;6.57;;;3.60;;
17763;SDS011;22245;52.832;13.816;2024-01-07T08:11:16;8.57;;;4.20;;
17763;SDS011;22245;52.832;13.816;2024-01-07T08:14:38;8.47;;;4.33;;
17763;SDS011;22245;52.832;13.816;2024-01-07T08:18:01;7.00;;;3.73;;
17763;SDS011;22245;52.832;13.816;2024-01-07T08:21:23;9.87;;;4.00;;
17763;SDS011;22245;52.832;13.816;2024-01-07T08:24:46;6.27;;;3.30;;
17763;SDS011;22245;52.832;13.816;2024-01-07T08:28:08;6.30;;;3.27;;
17763;SDS011;22245;52.832;13.816;2024-01-07T08:31:30;6.83;;;3.30;;
17763;SDS011;22245;52.832;13.816;2024-01-07T08:34:52;6.80;;;3.30;;
17763;SDS011;22245;52.832;13.816;2024-01-07T08:38:14;8.50;;;3.80;;
17763;SDS011;22245;52.832;13.816;2024-01-07T08:41:37;5.70;;;3.57;;
17763;SDS011;22245;52.832;13.816;2024-01-07T08:44:58;6.43;;;3.30;;
17763;SDS011;22245;52.832;13.816;2024-01-07T08:48:21;5.47;;;3.47;;
17763;SDS011;22245;52.832;13.816;2024-01-07T08:51:42;6.83;;;3.27;;
17763;SDS011;22245;52.832;13.816;2024-01-07T08:55:04;5.33;;;2.97;;
17763;SDS011;22245;52.832;13.816;2024-01-07T08:58:31;5.83;;;3.47;;
17763;SDS011;22245;52.832;13.816;2024-01-07T09:01:53;5.97;;;3.53;;
17763;SDS011;22245;52.832;13.816;2024-01-07T09:05:14;6.17;;;3.37;;
17763;SDS011;22245;52.832;13.816;2024-01-07T09:08:36;7.87;;;3.63;;
17763;SDS011;22245;52.832;13.816;2024-01-07T09:11:57;6.37;;;3.20;;
17763;SDS011;22245;52.832;13.816;2024-01-07T09:15:21;6.00;;;3.33;;
17763;SDS011;22245;52.832;13.816;2024-01-07T09:18:43;8.90;;;3.60;;
17763;SDS011;22245;52.832;13.816;2024-01-07T09:22:05;8.43;;;4.30;;
17763;SDS011;22245;52.832;13.816;2024-01-07T09:25:27;7.20;;;3.70;;
17763;SDS011;22245;52.832;13.816;2024-01-07T09:28:49;8.53;;;3.70;;
17763;SDS011;22245;52.832;13.816;2024-01-07T09:32:13;9.37;;;4.70;;
17763;SDS011;22245;52.832;13.816;2024-01-07T09:35:35;7.13;;;4.10;;
17763;SDS011;22245;52.832;13.816;2024-01-07T09:38:56;6.23;;;3.70;;
17763;SDS011;22245;52.832;13.816;2024-01-07T09:42:18;6.70;;;3.60;;
17763;SDS011;22245;52.832;13.816;2024-01-07T09:45:41;6.57;;;3.63;;
17763;SDS011;22245;52.832;13.816;2024-01-07T09:49:08;7.97;;;3.83;;
17763;SDS011;22245;52.832;13.816;2024-01-07T09:52:30;9.93;;;3.93;;
17763;SDS011;22245;52.832;13.816;2024-01-07T09:55:56;7.87;;;4.00;;
17763;SDS011;22245;52.832;13.816;2024-01-07T09:59:27;9.03;;;4.20;;
17763;SDS011;22245;52.832;13.816;2024-01-07T10:02:48;10.50;;;4.20;;
17763;SDS011;22245;52.832;13.816;2024-01-07T10:06:11;8.40;;;4.57;;
17763;SDS011;22245;52.832;13.816;2024-01-07T10:09:33;10.17;;;5.00;;
17763;SDS011;22245;52.832;13.816;2024-01-07T10:12:55;9.27;;;4.20;;
17763;SDS011;22245;52.832;13.816;2024-01-07T10:16:18;10.00;;;4.53;;
17763;SDS011;22245;52.832;13.816;2024-01-07T10:19:40;12.70;;;4.60;;
17763;SDS011;22245;52.832;13.816;2024-01-07T10:23:05;9.30;;;5.00;;
17763;SDS011;22245;52.832;13.816;2024-01-07T10:26:27;11.53;;;4.97;;
17763;SDS011;22245;52.832;13.816;2024-01-07T10:29:50;7.57;;;4.27;;
17763;SDS011;22245;52.832;13.816;2024-01-07T10:33:16;10.20;;;4.70;;
17763;SDS011;22245;52.832;13.816;2024-01-07T10:36:38;9.17;;;4.57;;
17763;SDS011;22245;52.832;13.816;2024-01-07T10:40:03;7.83;;;4.47;;
17763;SDS011;22245;52.832;13.816;2024-01-07T10:43:25;8.37;;;4.77;;
17763;SDS011;22245;52.832;13.816;2024-01-07T10:46:49;8.87;;;4.20;;
17763;SDS011;22245;52.832;13.816;2024-01-07T10:50:11;6.73;;;4.03;;
17763;SDS011;22245;52.832;13.816;2024-01-07T10:53:34;8.47;;;4.53;;
17763;SDS011;22245;52.832;13.816;2024-01-07T10:57:02;10.73;;;6.90;;
17763;SDS011;22245;52.832;13.816;2024-01-07T11:00:30;8.33;;;5.00;;
17763;SDS011;22245;52.832;13.816;2024-01-07T11:03:56;8.73;;;4.47;;
17763;SDS011;22245;52.832;13.816;2024-01-07T11:07:26;8.00;;;4.03;;
17763;SDS011;22245;52.832;13.816;2024-01-07T11:10:58;10.60;;;5.57;;
17763;SDS011;22245;52.832;13.816;2024-01-07T11:14:35;12.07;;;6.20;;
17763;SDS011;22245;52.832;13.816;2024-01-07T11:17:57;18.50;;;7.93;;
17763;SDS011;22245;52.832;13.816;2024-01-07T11:21:22;10.57;;;5.83;;
17763;SDS011;22245;52.832;13.816;2024-01-07T11:24:46;9.13;;;5.40;;
17763;SDS011;22245;52.832;13.816;2024-01-07T11:28:07;10.07;;;6.20;;
17763;SDS011;22245;52.832;13.816;2024-01-07T11:31:43;9.40;;;5.30;;
17763;SDS011;22245;52.832;13.816;2024-01-07T11:35:07;7.70;;;4.13;;
17763;SDS011;22245;52.832;13.816;2024-01-07T11:38:29;6.97;;;3.87;;
17763;SDS011;22245;52.832;13.816;2024-01-07T11:41:51;7.27;;;3.67;;
17763;SDS011;22245;52.832;13.816;2024-01-07T11:45:12;10.00;;;4.43;;
17763;SDS011;22245;52.832;13.816;2024-01-07T11:48:34;8.33;;;4.17;;
17763;SDS011;22245;52.832;13.816;2024-01-07T11:51:56;5.83;;;3.90;;
17763;SDS011;22245;52.832;13.816;2024-01-07T11:55:18;6.63;;;3.53;;
17763;SDS011;22245;52.832;13.816;2024-01-07T11:58:41;8.80;;;4.20;;
17763;SDS011;22245;52.832;13.816;2024-01-07T12:02:03;6.20;;;3.57;;
17763;SDS011;22245;52.832;13.816;2024-01-07T12:05:27;7.77;;;4.10;;
17763;SDS011;22245;52.832;13.816;2024-01-07T12:08:49;5.37;;;3.10;;
17763;SDS011;22245;52.832;13.816;2024-01-07T12:12:10;7.30;;;3.63;;
17763;SDS011;22245;52.832;13.816;2024-01-07T12:15:32;6.67;;;3.40;;
17763;SDS011;22245;52.832;13.816;2024-01-07T12:18:54;5.40;;;3.43;;
17763;SDS011;22245;52.832;13.816;2024-01-07T12:22:18;4.30;;;3.07;;
17763;SDS011;22245;52.832;13.816;2024-01-07T12:25:40;8.87;;;4.57;;
17763;SDS011;22245;52.832;13.816;2024-01-07T12:29:01;7.77;;;4.03;;
17763;SDS011;22245;52.832;13.816;2024-01-07T12:32:25;9.87;;;4.70;;
17763;SDS011;22245;52.832;13.816;2024-01-07T12:35:47;6.73;;;3.43;;
17763;SDS011;22245;52.832;13.816;2024-01-07T12:39:10;5.17;;;2.60;;
17763;SDS011;22245;52.832;13.816;2024-01-07T12:42:32;4.93;;;2.40;;
17763;SDS011;22245;52.832;13.816;2024-01-07T12:45:53;3.97;;;2.23;;
17763;SDS011;22245;52.832;13.816;2024-01-07T12:49:17;3.97;;;2.50;;
17763;SDS011;22245;52.832;13.816;2024-01-07T12:52:39;8.30;;;3.80;;
17763;SDS011;22245;52.832;13.816;2024-01-07T12:56:01;11.47;;;4.57;;
17763;SDS011;22245;52.832;13.816;2024-01-07T12:59:23;8.50;;;3.90;;
17763;SDS011;22245;52.832;13.816;2024-01-07T13:02:45;4.60;;;2.40;;
17763;SDS011;22245;52.832;13.816;2024-01-07T13:06:07;3.00;;;2.30;;
17763;SDS011;22245;52.832;13.816;2024-01-07T13:09:29;3.83;;;1.80;;
17763;SDS011;22245;52.832;13.816;2024-01-07T13:12:52;3.37;;;1.90;;
17763;SDS011;22245;52.832;13.816;2024-01-07T13:16:24;2.37;;;1.53;;
17763;SDS011;22245;52.832;13.816;2024-01-07T13:19:45;5.33;;;1.90;;
17763;SDS011;22245;52.832;13.816;2024-01-07T13:23:07;4.87;;;2.17;;
17763;SDS011;22245;52.832;13.816;2024-01-07T13:26:28;6.17;;;2.37;;
17763;SDS011;22245;52.832;13.816;2024-01-07T13:29:51;2.90;;;1.97;;
17763;SDS011;22245;52.832;13.816;2024-01-07T13:33:13;3.97;;;2.10;;
17763;SDS011;22245;52.832;13.816;2024-01-07T13:36:37;3.10;;;1.80;;
17763;SDS011;22245;52.832;13.816;2024-01-07T13:39:59;2.87;;;2.03;;
17763;SDS011;22245;52.832;13.816;2024-01-07T13:43:21;4.50;;;2.13;;
17763;SDS011;22245;52.832;13.816;2024-01-07T13:46:46;4.07;;;2.00;;
17763;SDS011;22245;52.832;13.816;2024-01-07T13:50:09;3.57;;;2.20;;
17763;SDS011;22245;52.832;13.816;2024-01-07T13:53:31;4.87;;;2.20;;
17763;SDS011;22245;52.832;13.816;2024-01-07T13:56:52;5.37;;;2.20;;
17763;SDS011;22245;52.832;13.816;2024-01-07T14:00:14;5.33;;;2.30;;
17763;SDS011;22245;52.832;13.816;2024-01-07T14:03:41;3.93;;;2.40;;
17763;SDS011;22245;52.832;13.816;2024-01-07T14:07:03;6.13;;;2.93;;
17763;SDS011;22245;52.832;13.816;2024-01-07T14:10:25;4.97;;;3.00;;
17763;SDS011;22245;52.832;13.816;2024-01-07T14:13:46;4.73;;;3.00;;
17763;SDS011;22245;52.832;13.816;2024-01-07T14:17:08;6.20;;;3.30;;
17763;SDS011;22245;52.832;13.816;2024-01-07T14:20:30;6.07;;;3.33;;
17763;SDS011;22245;52.832;13.816;2024-01-07T14:23:52;7.17;;;3.50;;
17763;SDS011;22245;52.832;13.816;2024-01-07T14:27:13;6.07;;;3.83;;
17763;SDS011;22245;52.832;13.816;2024-01-07T14:30:35;6.80;;;3.90;;
17763;SDS011;22245;52.832;13.816;2024-01-07T14:33:57;6.53;;;3.87;;
17763;SDS011;22245;52.832;13.816;2024-01-07T14:37:20;7.20;;;4.23;;
17763;SDS011;22245;52.832;13.816;2024-01-07T14:40:42;7.47;;;3.70;;
17763;SDS011;22245;52.832;13.816;2024-01-07T14:44:06;9.83;;;3.53;;
17763;SDS011;22245;52.832;13.816;2024-01-07T14:47:32;5.67;;;3.10;;
17763;SDS011;22245;52.832;13.816;2024-01-07T14:50:54;6.17;;;3.60;;
17763;SDS011;22245;52.832;13.816;2024-01-07T14:54:17;5.60;;;3.57;;
17763;SDS011;22245;52.832;13.816;2024-01-07T14:57:38;6.27;;;3.20;;
17763;SDS011;22245;52.832;13.816;2024-01-07T15:01:00;8.63;;;3.47;;
17763;SDS011;22245;52.832;13.816;2024-01-07T15:04:22;7.50;;;3.40;;
17763;SDS011;22245;52.832;13.816;2024-01-07T15:07:44;10.10;;;4.03;;
17763;SDS011;22245;52.832;13.816;2024-01-07T15:11:08;6.57;;;3.20;;
17763;SDS011;22245;52.832;13.816;2024-01-07T15:14:29;5.77;;;3.50;;
17763;SDS011;22245;52.832;13.816;2024-01-07T15:17:50;6.20;;;3.40;;
17763;SDS011;22245;52.832;13.816;2024-01-07T15:21:13;4.77;;;3.13;;
17763;SDS011;22245;52.832;13.816;2024-01-07T15:24:35;6.37;;;3.30;;
17763;SDS011;22245;52.832;13.816;2024-01-07T15:27:58;7.20;;;3.67;;
17763;SDS011;22245;52.832;13.816;2024-01-07T15:31:19;7.23;;;3.90;;
17763;SDS011;22245;52.832;13.816;2024-01-07T15:34:42;6.10;;;4.00;;
17763;SDS011;22245;52.832;13.816;2024-01-07T15:38:03;7.03;;;3.73;;
17763;SDS011;22245;52.832;13.816;2024-01-07T15:41:25;6.63;;;3.83;;
17763;SDS011;22245;52.832;13.816;2024-01-07T15:44:47;6.63;;;3.50;;
17763;SDS011;22245;52.832;13.816;2024-01-07T15:48:09;6.17;;;3.63;;
17763;SDS011;22245;52.832;13.816;2024-01-07T15:51:30;6.50;;;4.20;;
17763;SDS011;22245;52.832;13.816;2024-01-07T15:54:52;6.97;;;3.83;;
17763;SDS011;22245;52.832;13.816;2024-01-07T15:58:14;7.57;;;3.90;;
17763;SDS011;22245;52.832;13.816;2024-01-07T16:01:38;7.67;;;4.20;;
17763;SDS011;22245;52.832;13.816;2024-01-07T16:04:59;7.37;;;4.10;;
17763;SDS011;22245;52.832;13.816;2024-01-07T16:08:21;6.83;;;3.90;;
17763;SDS011;22245;52.832;13.816;2024-01-07T16:11:46;8.00;;;4.37;;
17763;SDS011;22245;52.832;13.816;2024-01-07T16:15:08;7.23;;;4.07;;
17763;SDS011;22245;52.832;13.816;2024-01-07T16:18:31;7.77;;;4.13;;
17763;SDS011;22245;52.832;13.816;2024-01-07T16:21:53;7.60;;;4.17;;
17763;SDS011;22245;52.832;13.816;2024-01-07T16:25:14;10.17;;;4.43;;
17763;SDS011;22245;52.832;13.816;2024-01-07T16:28:36;9.10;;;4.40;;
17763;SDS011;22245;52.832;13.816;2024-01-07T16:31:58;7.07;;;4.20;;
17763;SDS011;22245;52.832;13.816;2024-01-07T16:35:21;8.50;;;4.50;;
17763;SDS011;22245;52.832;13.816;2024-01-07T16:38:43;9.83;;;4.40;;
17763;SDS011;22245;52.832;13.816;2024-01-07T16:42:04;9.20;;;4.40;;
17763;SDS011;22245;52.832;13.816;2024-01-07T16:45:25;9.90;;;4.80;;
17763;SDS011;22245;52.832;13.816;2024-01-07T16:48:46;8.40;;;4.60;;
17763;SDS011;22245;52.832;13.816;2024-01-07T16:52:14;8.03;;;4.67;;
17763;SDS011;22245;52.832;13.816;2024-01-07T16:55:36;7.80;;;4.97;;
17763;SDS011;22245;52.832;13.816;2024-01-07T16:58:57;8.03;;;4.20;;
17763;SDS011;22245;52.832;13.816;2024-01-07T17:02:19;7.97;;;4.53;;
17763;SDS011;22245;52.832;13.816;2024-01-07T17:05:41;7.03;;;3.90;;
17763;SDS011;22245;52.832;13.816;2024-01-07T17:09:04;8.60;;;4.40;;
17763;SDS011;22245;52.832;13.816;2024-01-07T17:12:25;9.03;;;4.60;;
17763;SDS011;22245;52.832;13.816;2024-01-07T17:15:46;6.93;;;3.97;;
17763;SDS011;22245;52.832;13.816;2024-01-07T17:19:08;6.33;;;3.70;;
17763;SDS011;22245;52.832;13.816;2024-01-07T17:22:30;8.30;;;3.70;;
17763;SDS011;22245;52.832;13.816;2024-01-07T17:25:53;7.20;;;4.03;;
17763;SDS011;22245;52.832;13.816;2024-01-07T17:29:14;7.40;;;4.13;;
17763;SDS011;22245;52.832;13.816;2024-01-07T17:32:36;7.23;;;4.10;;
17763;SDS011;22245;52.832;13.816;2024-01-07T17:35:58;6.93;;;3.73;;
17763;SDS011;22245;52.832;13.816;2024-01-07T17:39:19;5.63;;;3.80;;
17763;SDS011;22245;52.832;13.816;2024-01-07T17:42:42;7.67;;;3.90;;
17763;SDS011;22245;52.832;13.816;2024-01-07T17:46:05;8.53;;;3.77;;
17763;SDS011;22245;52.832;13.816;2024-01-07T17:49:27;8.80;;;4.40;;
17763;SDS011;22245;52.832;13.816;2024-01-07T17:52:48;7.47;;;3.77;;
17763;SDS011;22245;52.832;13.816;2024-01-07T17:56:16;8.07;;;4.23;;
17763;SDS011;22245;52.832;13.816;2024-01-07T17:59:40;8.77;;;4.00;;
17763;SDS011;22245;52.832;13.816;2024-01-07T18:03:01;8.23;;;3.47;;
17763;SDS011;22245;52.832;13.816;2024-01-07T18:06:26;6.13;;;3.43;;
17763;SDS011;22245;52.832;13.816;2024-01-07T18:09:48;6.60;;;3.40;;
17763;SDS011;22245;52.832;13.816;2024-01-07T18:13:10;7.00;;;3.60;;
17763;SDS011;22245;52.832;13.816;2024-01-07T18:16:37;8.33;;;4.00;;
17763;SDS011;22245;52.832;13.816;2024-01-07T18:19:59;10.73;;;4.43;;
17763;SDS011;22245;52.832;13.816;2024-01-07T18:23:21;11.67;;;5.13;;
17763;SDS011;22245;52.832;13.816;2024-01-07T18:26:43;8.33;;;3.70;;
17763;SDS011;22245;52.832;13.816;2024-01-07T18:30:05;6.07;;;3.57;;
17763;SDS011;22245;52.832;13.816;2024-01-07T18:33:29;8.63;;;3.97;;
17763;SDS011;22245;52.832;13.816;2024-01-07T18:36:50;7.87;;;4.00;;
17763;SDS011;22245;52.832;13.816;2024-01-07T18:40:12;6.43;;;3.43;;
17763;SDS011;22245;52.832;13.816;2024-01-07T18:43:34;7.63;;;4.07;;
17763;SDS011;22245;52.832;13.816;2024-01-07T18:46:55;7.90;;;3.87;;
17763;SDS011;22245;52.832;13.816;2024-01-07T18:50:18;7.63;;;3.77;;
17763;SDS011;22245;52.832;13.816;2024-01-07T18:53:40;8.83;;;3.90;;
17763;SDS011;22245;52.832;13.816;2024-01-07T18:57:02;8.77;;;3.73;;
17763;SDS011;22245;52.832;13.816;2024-01-07T19:00:25;7.40;;;3.70;;
17763;SDS011;22245;52.832;13.816;2024-01-07T19:03:46;7.23;;;3.73;;
17763;SDS011;22245;52.832;13.816;2024-01-07T19:07:09;7.93;;;3.80;;
17763;SDS011;22245;52.832;13.816;2024-01-07T19:10:31;8.80;;;3.77;;
17763;SDS011;22245;52.832;13.816;2024-01-07T19:13:54;8.97;;;3.60;;
17763;SDS011;22245;52.832;13.816;2024-01-07T19:17:15;7.23;;;3.70;;
17763;SDS011;22245;52.832;13.816;2024-01-07T19:20:36;9.13;;;4.37;;
17763;SDS011;22245;52.832;13.816;2024-01-07T19:23:59;11.10;;;4.80;;
17763;SDS011;22245;52.832;13.816;2024-01-07T19:27:21;10.00;;;4.53;;
17763;SDS011;22245;52.832;13.816;2024-01-07T19:30:43;12.43;;;4.83;;
17763;SDS011;22245;52.832;13.816;2024-01-07T19:34:07;11.07;;;5.07;;
17763;SDS011;22245;52.832;13.816;2024-01-07T19:37:28;9.80;;;4.60;;
17763;SDS011;22245;52.832;13.816;2024-01-07T19:40:51;11.83;;;4.90;;
17763;SDS011;22245;52.832;13.816;2024-01-07T19:44:12;11.13;;;4.40;;
17763;SDS011;22245;52.832;13.816;2024-01-07T19:47:36;10.03;;;4.33;;
17763;SDS011;22245;52.832;13.816;2024-01-07T19:50:58;9.97;;;5.00;;
17763;SDS011;22245;52.832;13.816;2024-01-07T19:54:19;10.33;;;4.70;;
17763;SDS011;22245;52.832;13.816;2024-01-07T19:57:44;11.40;;;4.93;;
17763;SDS011;22245;52.832;13.816;2024-01-07T20:01:06;10.70;;;4.63;;
17763;SDS011;22245;52.832;13.816;2024-01-07T20:04:28;11.20;;;4.53;;
17763;SDS011;22245;52.832;13.816;2024-01-07T20:07:49;9.73;;;4.77;;
17763;SDS011;22245;52.832;13.816;2024-01-07T20:11:15;11.27;;;4.70;;